Time;durP1;ratioP1;P1;durP2;ratioP2;P2;SDS_P1;SDS_P2;PMS_P1;PMS_P2;Temp;Humidity;BMP_temperature;BMP_pressure;BME280_temperature;BME280_humidity;BME280_pressure;Samples;Min_cycle;Max_cycle;Signal;HPM_P1;HPM_P2
2021/04/03 00:01:59;;;;;;;35.30;18.63;;;;;;;3.52;68.82;98374.80;240143;1198;23183;-70
2021/04/03 00:07:02;;;;;;;40.47;19.27;;;;;;;3.42;68.80;98364.13;239854;1200;23170;-70
2021/04/03 00:12:07;;;;;;;32.07;17.13;;;;;;;3.33;68.73;98373.56;239606;1200;23126;-70
2021/04/03 00:17:10;;;;;;;32.40;16.50;;;;;;;3.24;69.28;98379.31;239483;1200;23109;-71
2021/04/03 00:22:12;;;;;;;32.77;16.03;;;;;;;3.19;69.43;98373.17;237991;1199;23467;-69
2021/04/03 00:27:15;;;;;;;27.85;14.50;;;;;;;3.22;69.97;98373.48;238112;1201;23314;-69
2021/04/03 00:32:19;;;;;;;26.83;14.47;;;;;;;3.21;69.72;98366.58;238239;1202;23129;-69
2021/04/03 00:37:22;;;;;;;28.37;13.50;;;;;;;3.19;70.06;98370.52;237995;1197;23137;-70
2021/04/03 00:42:25;;;;;;;23.20;11.97;;;;;;;3.14;69.99;98370.49;238169;1196;23093;-69
2021/04/03 00:47:28;;;;;;;27.37;12.10;;;;;;;3.05;70.03;98370.11;238007;1199;23105;-70
2021/04/03 00:52:31;;;;;;;26.20;13.25;;;;;;;3.00;70.00;98364.78;238138;1200;23279;-70
2021/04/03 00:57:34;;;;;;;25.33;13.60;;;;;;;3.00;70.62;98364.78;238020;1197;23118;-70
2021/04/03 01:02:37;;;;;;;20.20;12.15;;;;;;;3.04;70.27;98365.89;238392;1197;23093;-70
2021/04/03 01:07:41;;;;;;;21.40;10.80;;;;;;;3.10;70.34;98369.39;238329;1201;23342;-69
2021/04/03 01:12:56;;;;;;;22.00;12.17;;;;;;;3.20;70.71;98358.89;238299;1196;25034;-70
2021/04/03 01:18:22;;;;;;;22.87;11.03;;;;;;;3.27;70.86;98356.84;238326;1200;23136;-70
2021/04/03 01:23:50;;;;;;;16.60;9.65;;;;;;;3.28;70.28;98355.80;238175;1200;23105;-70
2021/04/03 01:29:02;;;;;;;18.30;10.10;;;;;;;3.25;70.25;98354.44;238216;1200;23112;-70
2021/04/03 01:34:20;;;;;;;17.70;9.83;;;;;;;3.18;70.46;98353.84;238234;1197;23119;-70
2021/04/03 01:39:27;;;;;;;18.98;11.05;;;;;;;3.10;70.45;98346.36;238159;1200;23112;-70
2021/04/03 01:44:36;;;;;;;21.37;11.77;;;;;;;3.02;71.28;98346.80;238093;1202;24789;-68
2021/04/03 01:49:39;;;;;;;23.57;12.10;;;;;;;2.99;71.34;98340.16;238145;1196;23199;-69
2021/04/03 01:54:44;;;;;;;21.83;12.37;;;;;;;3.03;71.15;98332.53;238791;1196;26214;-69
2021/04/03 01:59:49;;;;;;;19.05;9.50;;;;;;;3.03;71.61;98340.47;238043;1202;23094;-69
2021/04/03 02:04:59;;;;;;;20.83;11.23;;;;;;;3.04;71.65;98347.37;238423;1196;23276;-70
2021/04/03 02:10:06;;;;;;;21.37;12.73;;;;;;;2.99;71.79;98348.09;238364;1202;26290;-70
2021/04/03 02:15:18;;;;;;;21.97;11.23;;;;;;;2.89;72.54;98354.08;238176;1201;23135;-70
2021/04/03 02:20:21;;;;;;;21.57;12.07;;;;;;;2.84;72.67;98351.39;238287;1202;25823;-70
2021/04/03 02:25:25;;;;;;;17.70;10.65;;;;;;;2.88;73.44;98355.14;238362;1201;23237;-70
2021/04/03 02:30:28;;;;;;;20.80;11.53;;;;;;;2.95;72.95;98352.28;238341;1196;23109;-70
2021/04/03 02:35:31;;;;;;;17.73;10.50;;;;;;;2.96;73.25;98353.09;238391;1202;23132;-70
2021/04/03 02:40:37;;;;;;;16.13;9.43;;;;;;;2.98;74.24;98350.99;238081;1200;23118;-70
2021/04/03 02:45:46;;;;;;;16.37;9.30;;;;;;;3.01;73.93;98361.10;237965;1200;23334;-69
2021/04/03 02:50:52;;;;;;;20.10;10.80;;;;;;;3.05;73.97;98357.70;238704;1200;23109;-70
2021/04/03 02:55:56;;;;;;;18.43;9.93;;;;;;;3.11;74.29;98352.47;238223;1201;27169;-70
2021/04/03 03:01:01;;;;;;;17.25;9.60;;;;;;;3.15;74.55;98351.70;238107;1199;26019;-70
2021/04/03 03:06:05;;;;;;;19.03;10.23;;;;;;;3.24;73.95;98360.78;238285;1200;26089;-69
2021/04/03 03:11:10;;;;;;;20.00;10.90;;;;;;;3.37;73.93;98356.95;237879;1200;23157;-69
2021/04/03 03:16:14;;;;;;;16.80;9.10;;;;;;;3.51;74.58;98348.58;238235;1201;23160;-70
2021/04/03 03:21:18;;;;;;;17.10;10.45;;;;;;;3.61;74.51;98353.97;238144;1200;26268;-71
2021/04/03 03:26:23;;;;;;;15.17;8.77;;;;;;;3.69;74.15;98357.99;238403;1196;23118;-70
2021/04/03 03:31:27;;;;;;;15.37;8.87;;;;;;;3.79;74.48;98350.11;238518;1202;26681;-70
2021/04/03 03:36:35;;;;;;;12.37;7.83;;;;;;;3.91;74.09;98352.59;238438;1200;26387;-70
2021/04/03 03:41:40;;;;;;;13.17;8.20;;;;;;;4.04;74.27;98338.91;239473;1200;26213;-69
2021/04/03 03:46:42;;;;;;;12.40;7.90;;;;;;;4.11;74.60;98341.31;238244;1200;26616;-70
2021/04/03 03:51:46;;;;;;;14.73;8.63;;;;;;;4.15;74.12;98337.09;237998;1202;23127;-70
2021/04/03 03:56:49;;;;;;;11.55;7.80;;;;;;;4.22;74.01;98342.17;238560;1201;23097;-70
2021/04/03 04:01:53;;;;;;;11.10;7.40;;;;;;;4.26;74.15;98335.30;238412;1200;23115;-69
2021/04/03 04:06:56;;;;;;;11.43;7.00;;;;;;;4.24;74.11;98330.27;238219;1197;23133;-69
2021/04/03 04:12:05;;;;;;;13.20;7.40;;;;;;;4.27;74.30;98334.26;238003;1202;23094;-69
2021/04/03 04:17:11;;;;;;;6.00;4.70;;;;;;;4.25;74.14;98331.87;238277;1196;23109;-69
2021/04/03 04:22:16;;;;;;;4.00;3.10;;;;;;;4.16;73.75;98330.75;238000;1200;23115;-70
2021/04/03 04:27:19;;;;;;;4.70;2.73;;;;;;;4.06;73.75;98334.14;238637;1195;23305;-70
2021/04/03 04:32:22;;;;;;;4.83;3.00;;;;;;;3.99;74.46;98346.82;237948;1196;23125;-70
2021/04/03 04:37:26;;;;;;;5.30;3.40;;;;;;;3.84;74.62;98352.80;238181;1200;23140;-69
2021/04/03 04:42:30;;;;;;;4.70;3.60;;;;;;;3.72;74.41;98352.18;238354;1202;24742;-70
2021/04/03 04:47:34;;;;;;;7.57;4.47;;;;;;;3.66;75.30;98358.50;238197;1202;24737;-70
2021/04/03 04:52:40;;;;;;;8.20;4.35;;;;;;;3.55;75.72;98361.08;238278;1201;23138;-69
2021/04/03 04:57:44;;;;;;;5.43;3.83;;;;;;;3.38;76.67;98369.12;238367;1197;27210;-70
2021/04/03 05:02:51;;;;;;;4.20;3.55;;;;;;;3.25;76.44;98372.98;238264;1200;23259;-70
2021/04/03 05:07:54;;;;;;;6.50;3.85;;;;;;;3.21;76.93;98381.67;237984;1199;23135;-70
2021/04/03 05:13:03;;;;;;;4.80;3.20;;;;;;;3.14;76.74;98384.52;238214;1200;23125;-70
2021/04/03 05:18:06;;;;;;;5.73;3.97;;;;;;;3.06;77.57;98384.95;238402;1199;23136;-71
2021/04/03 05:23:08;;;;;;;6.95;4.05;;;;;;;3.03;77.96;98396.04;239659;1201;26265;-71
2021/04/03 05:28:15;;;;;;;6.35;3.95;;;;;;;3.00;78.13;98405.27;239710;1197;23128;-72
2021/04/03 05:33:18;;;;;;;9.33;5.80;;;;;;;2.98;78.10;98406.56;239505;1196;23260;-72
2021/04/03 05:38:21;;;;;;;10.73;6.43;;;;;;;2.97;78.31;98410.27;239780;1197;23128;-72
2021/04/03 05:43:27;;;;;;;8.55;5.10;;;;;;;3.00;78.54;98409.77;239901;1196;23215;-72
2021/04/03 05:48:31;;;;;;;7.60;5.87;;;;;;;3.04;78.48;98424.91;239846;1196;23109;-72
2021/04/03 05:53:35;;;;;;;8.53;5.30;;;;;;;3.06;79.20;98428.11;239909;1199;23105;-72
2021/04/03 05:58:38;;;;;;;9.90;5.85;;;;;;;3.11;79.27;98429.22;239779;1199;23117;-73
2021/04/03 06:03:42;;;;;;;11.10;6.05;;;;;;;3.16;78.90;98438.02;239943;1200;23147;-72
2021/04/03 06:08:45;;;;;;;10.10;6.23;;;;;;;3.19;79.54;98437.52;239911;1197;23128;-71
2021/04/03 06:13:56;;;;;;;11.93;7.17;;;;;;;3.25;79.32;98430.43;239595;1196;23112;-72
2021/04/03 06:19:05;;;;;;;11.60;7.67;;;;;;;3.35;79.39;98440.33;239760;1200;23112;-72
2021/04/03 06:24:17;;;;;;;10.50;6.67;;;;;;;3.45;79.58;98442.28;239780;1198;23553;-73
2021/04/03 06:29:33;;;;;;;12.80;7.73;;;;;;;3.53;79.63;98441.84;239697;1199;23065;-71
2021/04/03 06:34:39;;;;;;;12.95;7.50;;;;;;;3.58;79.37;98449.81;239813;1196;23131;-72
2021/04/03 06:39:54;;;;;;;9.73;7.37;;;;;;;3.66;79.14;98456.52;239618;1197;23469;-72
2021/04/03 06:45:21;;;;;;;12.75;7.65;;;;;;;3.69;79.60;98456.02;239800;1200;23172;-72
2021/04/03 06:50:26;;;;;;;13.47;8.30;;;;;;;3.83;79.16;98454.55;239820;1200;23099;-73
2021/04/03 06:55:30;;;;;;;17.17;8.47;;;;;;;4.14;79.41;98470.73;239738;1196;23105;-73
2021/04/03 07:00:35;;;;;;;12.90;8.60;;;;;;;4.43;78.94;98467.73;239854;1197;23387;-72
2021/04/03 07:05:38;;;;;;;13.80;8.70;;;;;;;4.62;78.56;98468.91;240104;1199;23115;-71
2021/04/03 07:10:41;;;;;;;15.17;9.43;;;;;;;4.84;78.64;98465.33;239814;1199;23159;-72
2021/04/03 07:15:45;;;;;;;14.30;9.10;;;;;;;5.09;77.93;98469.14;239709;1199;23205;-73
2021/04/03 07:20:48;;;;;;;16.80;9.87;;;;;;;5.21;77.22;98463.63;239976;1198;23091;-71
2021/04/03 07:25:51;;;;;;;15.57;8.87;;;;;;;5.23;77.12;98472.11;239783;1200;23113;-72
2021/04/03 07:30:54;;;;;;;16.05;9.60;;;;;;;5.23;76.95;98480.08;239598;1199;23129;-72
2021/04/03 07:35:58;;;;;;;13.10;7.90;;;;;;;5.21;76.66;98484.87;239749;1196;23146;-72
2021/04/03 07:41:11;;;;;;;12.83;8.47;;;;;;;5.32;76.12;98489.16;239305;1198;23112;-72
2021/04/03 07:46:19;;;;;;;11.53;7.63;;;;;;;5.48;76.02;98495.30;239234;1200;23105;-72
2021/04/03 07:51:25;;;;;;;13.63;6.93;;;;;;;5.59;75.67;98501.45;239262;1202;23067;-72
2021/04/03 07:56:50;;;;;;;11.40;7.20;;;;;;;5.74;75.23;98500.70;239399;1199;23129;-72
2021/04/03 08:01:53;;;;;;;12.63;7.40;;;;;;;5.92;74.28;98508.16;239495;1199;23112;-72
2021/04/03 08:07:01;;;;;;;10.40;7.35;;;;;;;5.77;73.87;98514.24;239423;1196;23102;-72
2021/04/03 08:12:07;;;;;;;10.23;7.30;;;;;;;5.47;73.84;98514.95;239519;1196;25556;-72
2021/04/03 08:17:19;;;;;;;11.80;7.60;;;;;;;5.24;73.86;98527.63;239069;1200;26121;-72
2021/04/03 08:22:22;;;;;;;11.10;7.67;;;;;;;5.08;74.11;98534.73;239431;1196;23132;-71
2021/04/03 08:27:37;;;;;;;11.85;7.55;;;;;;;5.06;74.32;98536.83;238999;1200;23105;-72
2021/04/03 08:32:40;;;;;;;10.07;6.77;;;;;;;5.00;74.54;98545.83;239552;1199;23241;-72
2021/04/03 08:38:06;;;;;;;12.30;6.60;;;;;;;4.90;74.30;98549.23;239043;1196;23109;-71
2021/04/03 08:43:17;;;;;;;9.00;6.05;;;;;;;4.88;74.79;98561.97;239260;1196;23109;-72
2021/04/03 08:48:20;;;;;;;11.60;6.70;;;;;;;4.86;75.06;98572.03;239282;1199;23538;-71
2021/04/03 08:53:22;;;;;;;6.50;4.30;;;;;;;4.78;74.41;98568.02;239171;1200;23266;-72
2021/04/03 08:58:25;;;;;;;6.95;4.40;;;;;;;4.70;74.13;98570.31;238997;1200;23102;-72
2021/04/03 09:03:28;;;;;;;10.73;5.20;;;;;;;4.68;74.47;98564.48;238952;1201;23122;-73
2021/04/03 09:08:32;;;;;;;9.03;5.33;;;;;;;4.85;74.61;98566.98;239338;1200;23130;-73
2021/04/03 09:13:37;;;;;;;10.23;6.20;;;;;;;5.09;74.15;98573.51;239018;1199;23236;-72
2021/04/03 09:18:41;;;;;;;9.90;6.03;;;;;;;5.36;73.94;98572.58;239198;1199;23202;-72
2021/04/03 09:23:43;;;;;;;10.07;5.73;;;;;;;5.67;73.62;98572.70;239094;1200;23113;-72
2021/04/03 09:28:46;;;;;;;12.20;5.83;;;;;;;6.00;73.05;98581.31;239284;1196;23109;-72
2021/04/03 09:33:49;;;;;;;10.33;6.63;;;;;;;6.15;72.73;98580.55;239285;1196;23109;-72
2021/04/03 09:38:52;;;;;;;10.40;6.40;;;;;;;6.07;71.50;98583.72;239323;1199;23112;-72
2021/04/03 09:43:55;;;;;;;10.27;6.83;;;;;;;5.73;71.56;98592.91;239017;1199;23176;-72
2021/04/03 09:48:57;;;;;;;9.67;6.00;;;;;;;5.23;71.34;98604.91;239273;1197;23263;-71
2021/04/03 09:54:01;;;;;;;8.05;4.50;;;;;;;4.68;72.53;98613.03;239235;1196;23131;-72
2021/04/03 09:59:04;;;;;;;7.47;4.47;;;;;;;4.41;73.99;98621.03;239210;1200;23105;-72
2021/04/03 10:04:06;;;;;;;6.20;4.25;;;;;;;4.50;75.19;98630.12;239200;1200;23121;-71
2021/04/03 10:09:09;;;;;;;7.27;4.43;;;;;;;4.81;75.39;98625.06;239361;1202;23118;-73
2021/04/03 10:14:12;;;;;;;5.13;3.80;;;;;;;5.25;75.48;98632.81;239139;1202;26126;-73
2021/04/03 10:19:15;;;;;;;4.45;3.00;;;;;;;5.67;74.77;98633.83;239295;1200;23128;-73
2021/04/03 10:24:18;;;;;;;4.80;3.45;;;;;;;5.91;73.91;98639.49;239198;1200;23125;-73
2021/04/03 10:29:20;;;;;;;4.85;3.25;;;;;;;6.00;71.59;98663.74;239157;1196;23135;-71
2021/04/03 10:34:23;;;;;;;3.70;3.20;;;;;;;5.87;70.48;98659.69;239493;1198;23112;-71
2021/04/03 10:39:26;;;;;;;4.55;3.40;;;;;;;5.78;70.47;98671.89;239272;1200;23245;-72
2021/04/03 10:44:28;;;;;;;5.03;3.73;;;;;;;5.61;70.21;98680.84;239191;1197;23183;-72
2021/04/03 10:49:31;;;;;;;4.70;3.43;;;;;;;5.39;70.45;98678.31;239308;1202;23115;-72
2021/04/03 10:54:34;;;;;;;3.80;3.30;;;;;;;5.21;70.73;98679.52;239099;1197;23102;-72
2021/04/03 10:59:37;;;;;;;4.60;3.60;;;;;;;5.09;70.97;98677.06;239479;1196;23171;-73
2021/04/03 11:04:39;;;;;;;5.35;3.30;;;;;;;5.13;71.55;98685.30;239161;1202;23243;-72
2021/04/03 11:09:42;;;;;;;5.40;3.50;;;;;;;5.33;71.66;98684.66;239381;1202;23109;-73
2021/04/03 11:14:44;;;;;;;8.30;4.20;;;;;;;5.48;70.97;98695.39;239217;1200;23109;-73
2021/04/03 11:19:47;;;;;;;4.90;4.00;;;;;;;5.70;70.85;98688.33;239268;1200;23155;-72
2021/04/03 11:24:50;;;;;;;4.55;4.00;;;;;;;5.79;69.99;98694.73;239225;1196;23160;-72
2021/04/03 11:29:54;;;;;;;6.07;3.77;;;;;;;5.83;69.65;98711.77;239375;1200;23157;-72
2021/04/03 11:34:57;;;;;;;4.80;3.70;;;;;;;5.90;68.76;98698.25;239305;1197;23244;-71
2021/04/03 11:40:02;;;;;;;5.67;4.33;;;;;;;6.02;69.26;98690.89;239062;1201;23163;-71
2021/04/03 11:45:07;;;;;;;5.30;4.47;;;;;;;6.16;68.77;98696.53;239392;1196;23256;-70
2021/04/03 11:50:11;;;;;;;5.90;4.97;;;;;;;6.22;68.45;98700.79;239045;1196;23119;-73
2021/04/03 11:55:16;;;;;;;5.80;4.35;;;;;;;6.32;68.20;98700.84;239034;1199;23241;-72
2021/04/03 12:00:20;;;;;;;6.15;4.40;;;;;;;6.59;67.52;98691.84;239328;1201;23237;-71
2021/04/03 12:05:23;;;;;;;4.90;4.10;;;;;;;6.84;66.74;98701.73;239355;1197;23074;-71
2021/04/03 12:10:26;;;;;;;6.67;4.60;;;;;;;6.98;65.88;98695.86;239376;1196;23101;-72
2021/04/03 12:15:28;;;;;;;5.50;4.30;;;;;;;7.12;64.56;98704.11;239311;1200;23263;-71
2021/04/03 12:20:32;;;;;;;4.97;4.40;;;;;;;7.30;63.51;98695.59;239301;1200;23187;-72
2021/04/03 12:25:35;;;;;;;5.27;4.60;;;;;;;7.31;62.85;98691.84;239324;1200;23104;-71
2021/04/03 12:30:37;;;;;;;5.10;4.60;;;;;;;7.32;61.83;98682.00;239458;1199;23117;-72
2021/04/03 12:35:40;;;;;;;5.37;4.07;;;;;;;7.26;61.64;98688.39;239414;1200;23240;-72
2021/04/03 12:40:43;;;;;;;4.80;4.30;;;;;;;7.26;61.52;98680.39;239203;1201;23109;-71
2021/04/03 12:45:46;;;;;;;7.90;5.50;;;;;;;7.46;60.97;98672.38;239341;1196;23109;-71
2021/04/03 12:50:50;;;;;;;6.10;4.80;;;;;;;7.78;60.78;98665.08;239186;1198;23106;-71
2021/04/03 12:55:55;;;;;;;8.03;4.57;;;;;;;8.05;61.17;98662.83;239094;1200;25958;-71
2021/04/03 13:00:57;;;;;;;6.65;4.90;;;;;;;8.25;59.73;98665.68;239218;1198;23357;-72
2021/04/03 13:06:01;;;;;;;7.85;5.05;;;;;;;8.23;58.06;98661.41;239067;1197;23117;-71
2021/04/03 13:11:05;;;;;;;5.85;4.40;;;;;;;8.21;57.40;98655.56;239235;1199;23121;-71
2021/04/03 13:16:08;;;;;;;4.23;3.20;;;;;;;8.32;56.35;98647.48;239320;1202;23112;-71
2021/04/03 13:21:12;;;;;;;5.43;3.60;;;;;;;8.27;55.06;98655.52;239214;1200;23121;-71
2021/04/03 13:26:15;;;;;;;4.75;3.70;;;;;;;8.29;55.26;98650.71;239504;1200;23138;-72
2021/04/03 13:31:28;;;;;;;6.07;4.07;;;;;;;8.57;56.01;98659.91;239432;1200;23104;-71
2021/04/03 13:36:31;;;;;;;4.73;3.60;;;;;;;8.64;52.27;98655.05;238985;1196;23122;-71
2021/04/03 13:41:34;;;;;;;5.03;3.73;;;;;;;8.45;52.90;98646.09;239098;1196;23217;-71
2021/04/03 13:46:36;;;;;;;5.37;3.53;;;;;;;8.26;52.94;98653.94;239208;1201;25520;-71
2021/04/03 13:51:39;;;;;;;5.23;3.47;;;;;;;8.28;53.76;98636.58;239105;1199;23238;-71
2021/04/03 13:56:46;;;;;;;6.40;3.80;;;;;;;8.59;53.16;98651.61;239212;1200;23244;-72
2021/04/03 14:01:49;;;;;;;4.00;3.00;;;;;;;8.85;52.38;98638.87;239198;1197;23109;-71
2021/04/03 14:06:53;;;;;;;5.30;3.97;;;;;;;8.89;51.84;98654.05;239204;1198;23135;-71
2021/04/03 14:11:56;;;;;;;5.60;4.20;;;;;;;8.87;51.08;98653.55;239093;1200;23105;-72
2021/04/03 14:16:58;;;;;;;4.10;3.50;;;;;;;8.96;51.42;98656.40;239268;1200;23103;-71
2021/04/03 14:22:14;;;;;;;4.60;3.15;;;;;;;9.00;50.87;98664.66;239393;1200;23266;-71
2021/04/03 14:27:17;;;;;;;4.47;3.37;;;;;;;9.07;50.39;98663.25;239184;1199;23122;-71
2021/04/03 14:32:20;;;;;;;4.63;2.73;;;;;;;9.32;48.90;98652.63;239367;1199;23266;-71
2021/04/03 14:37:23;;;;;;;3.30;1.90;;;;;;;9.57;46.72;98649.67;239219;1197;23160;-70
2021/04/03 14:42:26;;;;;;;3.43;2.10;;;;;;;9.71;46.51;98649.78;239494;1197;23109;-71
2021/04/03 14:47:28;;;;;;;2.95;2.35;;;;;;;9.39;45.90;98651.19;239320;1201;23307;-72
2021/04/03 14:52:33;;;;;;;3.37;2.23;;;;;;;9.12;46.21;98654.41;239101;1199;23100;-70
2021/04/03 14:57:39;;;;;;;4.30;2.80;;;;;;;9.13;46.04;98655.98;239172;1200;23247;-71
2021/04/03 15:02:41;;;;;;;3.70;2.40;;;;;;;9.12;45.46;98648.25;239293;1196;23102;-72
2021/04/03 15:07:44;;;;;;;2.65;2.10;;;;;;;9.05;46.96;98644.05;238974;1200;23127;-70
2021/04/03 15:12:47;;;;;;;3.77;2.47;;;;;;;8.89;45.41;98661.27;239321;1197;23389;-71
2021/04/03 15:17:49;;;;;;;3.10;2.15;;;;;;;8.73;45.48;98656.05;239147;1197;23109;-70
2021/04/03 15:22:52;;;;;;;2.87;1.57;;;;;;;8.58;45.24;98661.50;239445;1198;23119;-71
2021/04/03 15:27:55;;;;;;;4.00;2.10;;;;;;;8.45;44.87;98662.11;239027;1198;23100;-70
2021/04/03 15:32:58;;;;;;;1.90;1.70;;;;;;;8.30;45.66;98661.11;239227;1200;23112;-70
2021/04/03 15:38:00;;;;;;;2.50;1.30;;;;;;;8.13;45.38;98677.48;238944;1197;23109;-71
2021/04/03 15:43:04;;;;;;;2.27;1.37;;;;;;;8.02;45.80;98682.06;239096;1196;23109;-71
2021/04/03 15:48:07;;;;;;;2.10;1.90;;;;;;;8.01;45.95;98677.78;239177;1200;23243;-71
2021/04/03 15:53:09;;;;;;;3.23;2.17;;;;;;;8.04;45.05;98695.13;239167;1200;23125;-70
2021/04/03 15:58:12;;;;;;;3.33;1.90;;;;;;;7.86;44.30;98696.52;239094;1199;23262;-69
2021/04/03 16:03:16;;;;;;;4.35;2.45;;;;;;;7.65;45.48;98688.60;239200;1196;23114;-72
2021/04/03 16:08:19;;;;;;;5.50;2.70;;;;;;;7.45;45.59;98694.76;239089;1196;23247;-70
2021/04/03 16:13:22;;;;;;;4.97;2.90;;;;;;;7.28;46.54;98695.05;239139;1202;23130;-71
2021/04/03 16:18:25;;;;;;;7.43;2.53;;;;;;;7.16;47.09;98694.52;239013;1201;23103;-73
2021/04/03 16:23:28;;;;;;;4.40;2.60;;;;;;;6.96;47.76;98703.33;239150;1199;23135;-70
2021/04/03 16:28:32;;;;;;;3.60;2.17;;;;;;;6.80;47.58;98700.66;239280;1199;23262;-71
2021/04/03 16:33:35;;;;;;;3.90;2.00;;;;;;;6.71;47.99;98699.57;239455;1200;23094;-73
2021/04/03 16:38:38;;;;;;;4.20;2.30;;;;;;;6.67;49.45;98707.30;239265;1200;23112;-70
2021/04/03 16:43:41;;;;;;;6.40;4.03;;;;;;;6.42;53.63;98724.02;239072;1199;23241;-70
2021/04/03 16:48:44;;;;;;;8.47;4.17;;;;;;;6.11;56.11;98741.71;239348;1199;23137;-72
2021/04/03 16:53:46;;;;;;;7.33;4.00;;;;;;;5.85;58.33;98748.73;239380;1199;23131;-70
2021/04/03 16:58:51;;;;;;;7.00;4.50;;;;;;;5.61;59.46;98752.59;239040;1200;23116;-71
2021/04/03 17:03:54;;;;;;;7.40;4.40;;;;;;;5.41;61.11;98766.52;239021;1200;23119;-71
2021/04/03 17:08:56;;;;;;;6.60;3.80;;;;;;;5.28;61.53;98782.90;239224;1194;23100;-72
2021/04/03 17:13:59;;;;;;;4.75;2.90;;;;;;;5.20;62.44;98776.18;239276;1197;23108;-72
2021/04/03 17:19:01;;;;;;;5.90;3.30;;;;;;;5.11;63.47;98796.30;238998;1199;23129;-71
2021/04/03 17:24:04;;;;;;;5.87;3.57;;;;;;;4.95;64.38;98801.47;239113;1200;23125;-70
2021/04/03 17:29:07;;;;;;;6.07;3.90;;;;;;;4.80;65.09;98799.45;239213;1202;23137;-72
2021/04/03 17:34:09;;;;;;;6.43;4.10;;;;;;;4.66;65.89;98805.38;239066;1200;23163;-72
2021/04/03 17:39:12;;;;;;;5.73;3.87;;;;;;;4.54;67.22;98816.93;238621;1200;23571;-71
2021/04/03 17:44:33;;;;;;;5.47;3.23;;;;;;;4.43;67.58;98823.95;239128;1200;23115;-71
2021/04/03 17:49:36;;;;;;;6.50;3.25;;;;;;;4.28;67.42;98832.54;239225;1200;23113;-71
2021/04/03 17:54:40;;;;;;;5.10;3.30;;;;;;;4.09;67.28;98858.52;239167;1200;23149;-71
2021/04/03 17:59:44;;;;;;;5.20;3.33;;;;;;;3.88;67.72;98864.58;239257;1197;23124;-71
2021/04/03 18:04:46;;;;;;;6.70;3.80;;;;;;;3.75;67.87;98873.66;239051;1200;23118;-70
2021/04/03 18:09:49;;;;;;;5.67;3.70;;;;;;;3.62;68.44;98887.22;239219;1201;23195;-71
2021/04/03 18:14:51;;;;;;;6.40;3.40;;;;;;;3.45;69.51;98903.09;239386;1199;23385;-72
2021/04/03 18:19:55;;;;;;;7.90;4.40;;;;;;;3.24;69.95;98900.86;239235;1200;23213;-71
2021/04/03 18:25:00;;;;;;;6.35;4.00;;;;;;;3.07;71.00;98900.81;239143;1199;23122;-72
2021/04/03 18:30:09;;;;;;;7.00;3.87;;;;;;;2.96;71.54;98906.16;239177;1196;23109;-72
2021/04/03 18:35:13;;;;;;;9.27;4.80;;;;;;;2.86;71.59;98909.41;239431;1196;26117;-71
2021/04/03 18:40:26;;;;;;;8.90;4.70;;;;;;;2.85;71.92;98916.52;239281;1199;23098;-71
2021/04/03 18:45:30;;;;;;;8.90;4.87;;;;;;;2.89;72.51;98915.02;239052;1196;25947;-71
2021/04/03 18:50:34;;;;;;;5.57;3.57;;;;;;;2.93;72.83;98912.72;239479;1196;23139;-71
2021/04/03 18:55:38;;;;;;;8.60;5.10;;;;;;;2.97;73.03;98918.36;239350;1200;25491;-72
2021/04/03 19:00:41;;;;;;;13.07;6.83;;;;;;;2.98;72.81;98912.01;239292;1199;23129;-72
2021/04/03 19:05:45;;;;;;;11.83;6.77;;;;;;;2.97;73.26;98910.42;239187;1200;23197;-70
2021/04/03 19:10:49;;;;;;;11.10;6.50;;;;;;;2.94;72.89;98918.80;239466;1200;23112;-71
2021/04/03 19:15:55;;;;;;;8.20;5.47;;;;;;;2.90;73.60;98916.64;239211;1200;23112;-73
2021/04/03 19:21:01;;;;;;;9.30;5.30;;;;;;;2.86;73.62;98931.38;239242;1199;23131;-71
2021/04/03 19:26:07;;;;;;;9.27;5.00;;;;;;;2.79;73.60;98929.91;239352;1200;23490;-72
2021/04/03 19:31:11;;;;;;;11.50;6.00;;;;;;;2.67;73.90;98935.20;239305;1196;23262;-72
2021/04/03 19:36:15;;;;;;;9.03;4.90;;;;;;;2.54;73.99;98937.05;239256;1202;23109;-72
2021/04/03 19:41:21;;;;;;;6.57;3.73;;;;;;;2.43;74.40;98943.16;239412;1199;23198;-72
2021/04/03 19:46:26;;;;;;;7.25;4.40;;;;;;;2.33;74.57;98945.58;239277;1199;23263;-71
2021/04/03 19:51:28;;;;;;;7.90;4.63;;;;;;;2.22;74.25;98952.47;239430;1199;23161;-71
2021/04/03 19:56:31;;;;;;;10.13;5.53;;;;;;;2.17;74.23;98958.45;239146;1197;23106;-71
2021/04/03 20:01:35;;;;;;;10.50;5.87;;;;;;;2.11;74.33;98959.34;239278;1199;23121;-70
2021/04/03 20:06:41;;;;;;;13.63;6.03;;;;;;;2.10;74.82;98965.68;239584;1198;23128;-71
2021/04/03 20:11:45;;;;;;;14.87;7.63;;;;;;;2.12;74.96;98966.25;239357;1199;23124;-71
2021/04/03 20:16:48;;;;;;;12.60;5.87;;;;;;;2.18;75.33;98973.28;239530;1200;23260;-72
2021/04/03 20:21:52;;;;;;;12.50;6.15;;;;;;;2.27;75.38;98965.81;239438;1199;23115;-72
2021/04/03 20:26:55;;;;;;;10.40;4.95;;;;;;;2.32;75.21;98970.41;239463;1202;23109;-73
2021/04/03 20:31:59;;;;;;;9.17;4.70;;;;;;;2.32;75.50;98978.33;239353;1200;23247;-71
2021/04/03 20:37:03;;;;;;;13.63;5.33;;;;;;;2.30;75.31;98975.92;239454;1197;23244;-71
2021/04/03 20:42:06;;;;;;;10.90;5.77;;;;;;;2.30;75.59;98988.34;239312;1196;23125;-73
2021/04/03 20:47:09;;;;;;;10.20;5.50;;;;;;;2.30;75.36;98983.05;239336;1196;23125;-72
2021/04/03 20:52:12;;;;;;;7.35;4.10;;;;;;;2.33;76.33;98995.81;239366;1196;23135;-72
2021/04/03 20:57:16;;;;;;;6.20;3.93;;;;;;;2.32;75.57;98995.02;239158;1197;23135;-72
2021/04/03 21:02:18;;;;;;;8.35;5.25;;;;;;;2.33;75.66;99003.74;239254;1200;23096;-70
2021/04/03 21:07:22;;;;;;;9.67;5.23;;;;;;;2.34;75.63;99008.00;239389;1200;23186;-72
2021/04/03 21:12:27;;;;;;;8.47;4.93;;;;;;;2.36;76.78;99011.21;239294;1196;23122;-72
2021/04/03 21:17:30;;;;;;;9.53;5.30;;;;;;;2.36;76.56;99016.50;239103;1199;23437;-72
2021/04/03 21:22:33;;;;;;;10.60;6.25;;;;;;;2.34;76.30;99014.09;239151;1202;23110;-72
2021/04/03 21:27:36;;;;;;;5.53;3.77;;;;;;;2.32;76.68;99018.81;239130;1200;23121;-72
2021/04/03 21:32:40;;;;;;;7.80;5.20;;;;;;;2.30;76.75;99028.80;239191;1199;23128;-70
2021/04/03 21:37:43;;;;;;;7.30;5.20;;;;;;;2.29;77.30;99018.45;239245;1202;23109;-71
2021/04/03 21:42:46;;;;;;;10.13;5.70;;;;;;;2.22;77.23;99027.30;239264;1200;23122;-72
2021/04/03 21:47:48;;;;;;;9.10;5.15;;;;;;;2.19;76.93;99022.45;239107;1197;23109;-71
2021/04/03 21:52:51;;;;;;;10.17;5.33;;;;;;;2.18;77.59;99026.14;239034;1197;23101;-71
2021/04/03 21:57:54;;;;;;;8.15;5.10;;;;;;;2.23;76.92;99022.81;239403;1199;23112;-72
2021/04/03 22:02:57;;;;;;;8.80;5.10;;;;;;;2.27;77.15;99036.36;239070;1200;23112;-71
2021/04/03 22:08:02;;;;;;;7.15;4.50;;;;;;;2.25;77.99;99039.23;239164;1201;23109;-71
2021/04/03 22:13:06;;;;;;;8.43;5.40;;;;;;;2.27;77.76;99039.83;239156;1197;23135;-72
2021/04/03 22:18:12;;;;;;;10.47;6.23;;;;;;;2.30;78.32;99059.72;238971;1198;23100;-71
2021/04/03 22:23:16;;;;;;;11.50;6.10;;;;;;;2.28;77.78;99051.20;239205;1201;24712;-72
2021/04/03 22:28:20;;;;;;;8.67;6.00;;;;;;;2.26;77.67;99064.64;239281;1199;23120;-72
2021/04/03 22:33:23;;;;;;;9.20;6.20;;;;;;;2.22;78.47;99059.02;239016;1200;23138;-72
2021/04/03 22:38:26;;;;;;;9.33;5.53;;;;;;;2.13;77.79;99065.66;239072;1199;23210;-72
2021/04/03 22:43:30;;;;;;;11.20;6.47;;;;;;;2.02;78.20;99064.58;239017;1200;23102;-72
2021/04/03 22:48:34;;;;;;;8.47;6.43;;;;;;;1.89;77.80;99056.85;239306;1202;23184;-72
2021/04/03 22:53:38;;;;;;;9.05;6.45;;;;;;;1.77;78.29;99066.56;239292;1196;23126;-71
2021/04/03 22:58:40;;;;;;;10.17;6.50;;;;;;;1.63;77.97;99066.72;238968;1196;23558;-72
2021/04/03 23:03:44;;;;;;;9.30;5.75;;;;;;;1.51;78.47;99056.11;239457;1196;23289;-72
2021/04/03 23:08:46;;;;;;;8.50;5.70;;;;;;;1.41;78.60;99066.37;239197;1197;23135;-72
2021/04/03 23:13:49;;;;;;;9.50;5.60;;;;;;;1.32;78.60;99060.59;239108;1199;23123;-71
2021/04/03 23:18:52;;;;;;;8.33;5.10;;;;;;;1.28;79.27;99059.41;239211;1196;23132;-72
2021/04/03 23:23:55;;;;;;;12.13;6.53;;;;;;;1.22;78.91;99055.03;239041;1196;23109;-72
2021/04/03 23:28:57;;;;;;;9.57;6.13;;;;;;;1.19;79.01;99066.03;239232;1200;23112;-71
2021/04/03 23:34:00;;;;;;;8.60;5.55;;;;;;;1.19;79.65;99066.83;239312;1200;23136;-72
2021/04/03 23:39:04;;;;;;;10.33;6.40;;;;;;;1.21;79.85;99063.96;239376;1198;23164;-70
2021/04/03 23:44:09;;;;;;;12.93;6.00;;;;;;;1.22;79.73;99068.22;239199;1200;23105;-71